Air Navigation Services of Czech Republic
Airport: LKTB Updated:  19.01.2018 14:38:07  UTC
 METAR LKTB 19.01. 14:30 ...
METAR LKTB 191430Z 28008KT 9999 SCT027 03/M01 Q1009 R27/29//95 NOSIG RMK REG QNH 1003=
 TAF LKTB 19.01. 11:00 ...
TAF LKTB 191100Z 1912/2018 22008KT 9999 SCT040      TEMPO 1912/1922 8000 -SHRASN BKN015      PROB40 TEMPO 1912/1918 26012G22KT 3000 SHSNRA SCT013TCU      BECMG 2006/2009 5000 -SN SCT010 BKN013      PROB30 TEMPO 2009/2015 24012G22KT 3000 SN BR BKN010      BECMG 2015/2017 21005KT=